Time;durP1;ratioP1;P1;durP2;ratioP2;P2;SDS_P1;SDS_P2;PMS_P1;PMS_P2;Temp;Humidity;BMP_temperature;BMP_pressure;BME280_temperature;BME280_humidity;BME280_pressure;Samples;Min_cycle;Max_cycle;Signal;HPM_P1;HPM_P2
2023/07/18 00:01:25;;;;;;;2.40;0.68;;;14.50;99.90;;;13.96;100.00;101660.63;3974177;29;20039;-76
2023/07/18 00:03:28;;;;;;;2.97;0.50;;;14.40;99.90;;;13.90;100.00;101647.16;3973842;29;20038;-76
2023/07/18 00:05:29;;;;;;;1.92;0.52;;;14.40;99.90;;;13.88;100.00;101644.66;3972428;29;20030;-76
2023/07/18 00:07:30;;;;;;;3.65;0.77;;;14.40;99.90;;;13.89;100.00;101641.00;3987158;29;20400;-76
2023/07/18 00:09:31;;;;;;;2.50;0.70;;;14.40;99.90;;;13.85;100.00;101634.38;3992224;29;20035;-76
2023/07/18 00:11:32;;;;;;;3.85;1.05;;;14.40;99.90;;;13.78;100.00;101622.72;3994526;29;20440;-76
2023/07/18 00:13:33;;;;;;;4.38;0.93;;;14.40;99.90;;;13.82;100.00;101634.69;3980297;29;20030;-76
2023/07/18 00:15:34;;;;;;;2.13;0.73;;;14.40;99.90;;;13.74;100.00;101622.19;3979427;29;20624;-76
2023/07/18 00:17:35;;;;;;;3.08;0.60;;;14.30;99.90;;;13.83;100.00;101636.31;3993599;29;20039;-76
2023/07/18 00:19:37;;;;;;;3.03;0.70;;;14.30;99.90;;;13.77;100.00;101636.94;3978116;29;20081;-76
2023/07/18 00:21:41;;;;;;;2.30;0.85;;;14.30;99.90;;;13.78;100.00;101638.63;3975376;29;20579;-76
2023/07/18 00:23:42;;;;;;;3.28;0.77;;;14.30;99.90;;;13.78;100.00;101628.84;3977271;29;20062;-76
2023/07/18 00:25:43;;;;;;;2.97;0.77;;;14.30;99.90;;;13.77;100.00;101626.34;3991090;29;20030;-76
2023/07/18 00:27:45;;;;;;;2.03;0.57;;;14.30;99.90;;;13.73;100.00;101620.53;3978098;29;20496;-76
2023/07/18 00:29:46;;;;;;;2.55;0.52;;;14.30;99.90;;;13.74;100.00;101622.19;3983726;29;20055;-76
2023/07/18 00:31:47;;;;;;;3.30;0.60;;;14.20;99.90;;;13.71;100.00;101624.31;3995638;29;20035;-76
2023/07/18 00:33:48;;;;;;;2.80;0.65;;;14.20;99.90;;;13.71;100.00;101622.50;3977208;29;20019;-76
2023/07/18 00:35:49;;;;;;;3.17;1.05;;;14.20;99.90;;;13.68;100.00;101616.66;3980149;29;20063;-76
2023/07/18 00:37:50;;;;;;;4.15;1.27;;;14.20;99.90;;;13.67;100.00;101622.97;3994732;29;20026;-76
2023/07/18 00:39:53;;;;;;;1.98;0.50;;;14.20;99.90;;;13.64;100.00;101620.63;3994229;29;20084;-76
2023/07/18 00:41:54;;;;;;;2.95;1.10;;;14.20;99.90;;;13.63;100.00;101618.94;3993505;29;20027;-76
2023/07/18 00:43:54;;;;;;;2.05;0.75;;;14.20;99.90;;;13.64;100.00;101607.38;3977508;29;20065;-76
2023/07/18 00:45:56;;;;;;;2.08;0.73;;;14.20;99.90;;;13.59;100.00;101607.00;3999521;29;20026;-76
2023/07/18 00:47:57;;;;;;;4.20;1.15;;;14.10;99.90;;;13.46;100.00;101583.53;3984056;29;20034;-76
2023/07/18 00:49:58;;;;;;;4.82;0.70;;;14.10;99.90;;;13.52;100.00;101595.34;3984244;29;20040;-76
2023/07/18 00:52:00;;;;;;;2.78;0.77;;;14.10;99.90;;;13.52;100.00;101596.19;3966927;30;20067;-76
2023/07/18 00:54:02;;;;;;;3.00;0.65;;;14.10;99.90;;;13.51;100.00;101588.38;4000095;29;20039;-76
2023/07/18 00:56:03;;;;;;;2.97;0.80;;;14.10;99.90;;;13.52;100.00;101592.69;3969194;29;20097;-76
2023/07/18 00:58:04;;;;;;;2.60;0.52;;;14.00;99.90;;;13.49;100.00;101591.19;3979943;29;20594;-76
2023/07/18 01:00:09;;;;;;;3.22;1.20;;;14.00;99.90;;;13.47;100.00;101585.19;3980222;29;20031;-76
2023/07/18 01:02:10;;;;;;;2.67;0.70;;;14.00;99.90;;;13.44;100.00;101582.03;3979919;29;20031;-76
2023/07/18 01:04:10;;;;;;;2.50;0.75;;;14.00;99.90;;;13.44;100.00;101585.50;3969146;30;20031;-76
2023/07/18 01:06:12;;;;;;;2.17;0.77;;;13.90;99.90;;;13.42;100.00;101576.88;3993508;29;20038;-76
2023/07/18 01:08:12;;;;;;;2.33;1.00;;;14.00;99.90;;;13.40;100.00;101570.06;3983161;29;20039;-76
2023/07/18 01:10:23;;;;;;;3.00;0.70;;;14.00;99.90;;;13.49;100.00;101577.09;3999162;29;20019;-76
2023/07/18 01:12:24;;;;;;;3.05;0.75;;;14.00;99.90;;;13.49;100.00;101575.28;4000410;29;20026;-76
2023/07/18 01:14:25;;;;;;;2.28;0.80;;;14.00;99.90;;;13.49;100.00;101569.97;3995421;29;20491;-76
2023/07/18 01:16:26;;;;;;;2.92;0.93;;;14.00;99.90;;;13.49;100.00;101571.81;3993740;29;20018;-76
2023/07/18 01:18:27;;;;;;;1.35;0.60;;;14.00;99.90;;;13.49;100.00;101558.53;3980842;29;20034;-76
2023/07/18 01:20:29;;;;;;;1.73;0.55;;;14.00;99.90;;;13.48;100.00;101562.16;3999523;29;20034;-76
2023/07/18 01:22:31;;;;;;;4.05;0.90;;;14.00;99.90;;;13.48;100.00;101567.47;3997086;29;20061;-76
2023/07/18 01:24:31;;;;;;;5.22;1.45;;;14.00;99.90;;;13.38;100.00;101546.34;3997456;29;20031;-76
2023/07/18 01:26:32;;;;;;;3.75;1.20;;;14.00;99.90;;;13.40;100.00;101565.59;3981721;29;20034;-76
2023/07/18 01:28:33;;;;;;;1.83;0.75;;;14.00;99.90;;;13.41;100.00;101563.78;3996938;29;20034;-76
2023/07/18 01:30:34;;;;;;;3.00;0.60;;;13.90;99.90;;;13.41;100.00;101566.44;3981273;29;20092;-76
2023/07/18 01:32:35;;;;;;;3.67;0.70;;;13.90;99.90;;;13.36;100.00;101558.09;3981034;29;20433;-76
2023/07/18 01:34:36;;;;;;;4.05;0.73;;;13.90;99.90;;;13.32;100.00;101542.50;3981511;29;20034;-76
2023/07/18 01:36:37;;;;;;;4.05;1.15;;;13.90;99.90;;;13.37;100.00;101550.00;3981504;29;20385;-76
2023/07/18 01:38:38;;;;;;;2.08;0.80;;;13.90;99.90;;;13.36;100.00;101542.19;3989490;29;20030;-76
2023/07/18 01:40:39;;;;;;;1.77;0.70;;;13.90;99.90;;;13.37;100.00;101539.41;3988544;29;20031;-76
2023/07/18 01:42:40;;;;;;;5.07;1.02;;;13.90;99.90;;;13.39;100.00;101536.59;3997107;29;20046;-76
2023/07/18 01:44:41;;;;;;;5.68;1.23;;;13.90;99.90;;;13.39;100.00;101529.47;3995831;29;20460;-76
2023/07/18 01:46:42;;;;;;;3.30;0.88;;;13.90;99.90;;;13.39;100.00;101532.13;3990842;29;20091;-76
2023/07/18 01:48:43;;;;;;;5.32;1.02;;;13.90;99.90;;;13.37;100.00;101523.53;3997126;29;20060;-76
2023/07/18 01:50:44;;;;;;;2.03;0.80;;;13.90;99.90;;;13.41;100.00;101530.16;3978451;29;20043;-76
2023/07/18 01:52:46;;;;;;;3.65;0.90;;;14.00;99.90;;;13.47;100.00;101526.06;3956533;30;20097;-76
2023/07/18 01:54:47;;;;;;;2.85;0.73;;;14.00;99.90;;;13.44;100.00;101523.72;3996090;29;20053;-76
2023/07/18 01:56:49;;;;;;;4.80;1.40;;;14.00;99.90;;;13.50;100.00;101526.56;3997111;29;20027;-76
2023/07/18 01:58:50;;;;;;;3.95;0.85;;;14.00;99.90;;;13.52;100.00;101516.66;3996981;29;20410;-76
2023/07/18 02:00:51;;;;;;;2.67;0.80;;;14.00;99.90;;;13.53;100.00;101512.19;3995747;29;20041;-76
2023/07/18 02:02:53;;;;;;;1.48;0.80;;;14.10;99.90;;;13.57;100.00;101508.22;3981029;29;20637;-76
2023/07/18 02:04:55;;;;;;;4.70;1.15;;;14.10;99.90;;;13.57;100.00;101508.22;3981039;29;20034;-76
2023/07/18 02:06:56;;;;;;;4.45;1.00;;;14.10;99.90;;;13.59;100.00;101500.97;3996899;29;20041;-76
2023/07/18 02:08:57;;;;;;;4.20;0.75;;;14.10;99.90;;;13.64;100.00;101506.63;3980934;29;20027;-76
2023/07/18 02:10:58;;;;;;;2.55;0.80;;;14.10;99.90;;;13.67;100.00;101495.69;3997175;29;20026;-76
2023/07/18 02:13:01;;;;;;;3.38;0.98;;;14.20;99.90;;;13.72;100.00;101496.06;3990471;29;20102;-76
2023/07/18 02:15:05;;;;;;;2.33;0.70;;;14.20;99.90;;;13.72;100.00;101488.09;3983817;29;20034;-76
2023/07/18 02:17:08;;;;;;;1.50;0.60;;;14.20;99.90;;;13.68;100.00;101473.47;3995603;29;20026;-76
2023/07/18 02:19:09;;;;;;;4.43;1.02;;;14.20;99.90;;;13.74;100.00;101488.75;3996855;29;20064;-76
2023/07/18 02:21:09;;;;;;;4.18;0.77;;;14.30;99.90;;;13.69;100.00;101476.00;3980681;29;20034;-76
2023/07/18 02:23:11;;;;;;;4.18;0.85;;;14.20;99.90;;;13.65;100.00;101473.81;3975565;29;20054;-76
2023/07/18 02:25:15;;;;;;;2.55;0.90;;;14.20;99.90;;;13.68;100.00;101473.47;3978527;29;20030;-76
2023/07/18 02:27:16;;;;;;;2.28;0.80;;;14.20;99.90;;;13.54;100.00;101451.06;3991960;29;20038;-76
2023/07/18 02:29:16;;;;;;;3.83;0.73;;;14.20;99.90;;;13.62;100.00;101466.19;3979463;29;20030;-76
2023/07/18 02:31:17;;;;;;;2.67;0.80;;;14.10;99.90;;;13.50;100.00;101457.66;3995783;29;20411;-76
2023/07/18 02:33:18;;;;;;;2.22;0.70;;;14.10;99.90;;;13.56;100.00;101470.28;3979427;29;20092;-76
2023/07/18 02:35:21;;;;;;;3.38;0.77;;;14.10;99.90;;;13.55;100.00;101460.69;3980487;29;20034;-76
2023/07/18 02:37:23;;;;;;;2.20;0.77;;;14.10;99.90;;;13.56;100.00;101456.22;3980565;29;20027;-76
2023/07/18 02:39:24;;;;;;;3.03;0.70;;;14.10;99.90;;;13.53;100.00;101454.69;3980622;29;20084;-76
2023/07/18 02:41:25;;;;;;;2.17;0.90;;;14.10;99.90;;;13.52;100.00;101452.22;3996758;29;20038;-76
2023/07/18 02:43:25;;;;;;;3.03;0.82;;;14.00;99.90;;;13.35;100.00;101427.41;3996502;29;20041;-76
2023/07/18 02:45:26;;;;;;;4.75;1.10;;;14.00;99.90;;;13.41;100.00;101444.53;3996350;29;20031;-76
2023/07/18 02:47:27;;;;;;;6.45;0.88;;;14.00;99.90;;;13.46;100.00;101448.38;3996395;29;20030;-76
2023/07/18 02:49:28;;;;;;;3.53;0.77;;;14.00;99.90;;;13.40;100.00;101441.06;3996403;29;20038;-76
2023/07/18 02:51:30;;;;;;;4.95;0.98;;;14.00;99.90;;;13.40;100.00;101442.88;3980286;29;20031;-76
2023/07/18 02:53:31;;;;;;;3.15;1.00;;;14.00;99.90;;;13.41;100.00;101436.59;3980230;29;20061;-76
2023/07/18 02:55:31;;;;;;;2.85;0.93;;;14.00;99.90;;;13.35;100.00;101427.41;3996277;29;20038;-76
2023/07/18 02:57:32;;;;;;;3.03;0.82;;;13.90;99.90;;;13.35;100.00;101427.41;3965239;29;20440;-76
2023/07/18 02:59:33;;;;;;;4.40;0.93;;;13.90;99.90;;;13.36;100.00;101425.59;3996201;29;20034;-76
2023/07/18 03:01:34;;;;;;;4.45;1.52;;;13.90;99.90;;;13.35;100.00;101418.66;3995215;29;20206;-76
2023/07/18 03:03:38;;;;;;;4.07;1.00;;;13.90;99.90;;;13.32;100.00;101420.63;3979211;29;20080;-76
2023/07/18 03:05:39;;;;;;;4.25;1.58;;;13.90;99.90;;;13.34;100.00;101428.44;3996372;29;20083;-76
2023/07/18 03:07:40;;;;;;;2.80;0.70;;;13.90;99.90;;;13.37;100.00;101422.81;3996308;29;20042;-76
2023/07/18 03:09:41;;;;;;;6.32;1.15;;;13.90;99.90;;;13.39;100.00;101406.75;3995155;29;20026;-76
2023/07/18 03:11:43;;;;;;;6.32;1.75;;;14.00;99.90;;;13.42;100.00;101407.25;3991145;29;20524;-76
2023/07/18 03:13:43;;;;;;;1.95;0.85;;;14.00;99.90;;;13.42;100.00;101422.31;3974374;29;20423;-76
2023/07/18 03:15:44;;;;;;;5.38;0.90;;;14.00;99.90;;;13.47;100.00;101433.31;3995392;29;20026;-76
2023/07/18 03:17:45;;;;;;;2.85;0.80;;;14.00;99.90;;;13.34;100.00;101417.00;3994124;29;20056;-76
2023/07/18 03:19:46;;;;;;;4.07;1.27;;;14.00;99.90;;;13.45;100.00;101427.31;3995185;29;20065;-76
2023/07/18 03:21:47;;;;;;;3.22;1.00;;;14.10;99.90;;;13.51;100.00;101416.09;3979604;29;20514;-76
2023/07/18 03:23:48;;;;;;;4.55;0.90;;;14.10;99.90;;;13.52;100.00;101417.75;3996019;29;20026;-76
2023/07/18 03:25:49;;;;;;;1.58;0.85;;;14.10;99.90;;;13.53;100.00;101425.53;3971294;29;20093;-76
2023/07/18 03:27:51;;;;;;;4.45;0.93;;;14.10;99.90;;;13.52;100.00;101418.59;3964961;29;20055;-76
2023/07/18 03:29:52;;;;;;;2.40;0.70;;;14.20;99.90;;;13.68;100.00;101431.06;3973632;29;20091;-76
2023/07/18 03:31:52;;;;;;;2.95;1.10;;;14.20;99.90;;;13.70;100.00;101421.97;3989317;29;20019;-76
2023/07/18 03:33:53;;;;;;;4.15;1.17;;;14.30;99.90;;;13.74;100.00;101425.13;3979742;29;20023;-76
2023/07/18 03:35:54;;;;;;;2.67;0.93;;;14.30;99.90;;;13.76;100.00;101431.13;3995898;29;20041;-76
2023/07/18 03:37:55;;;;;;;1.65;0.60;;;14.30;99.90;;;13.76;100.00;101433.78;3995888;29;20117;-76
2023/07/18 03:39:56;;;;;;;4.35;0.85;;;14.30;99.90;;;13.82;100.00;101433.97;3964850;30;20523;-76
2023/07/18 03:41:57;;;;;;;2.72;0.98;;;14.40;99.90;;;13.82;100.00;101428.66;3982886;29;20125;-76
2023/07/18 03:43:58;;;;;;;3.45;1.00;;;14.40;99.90;;;13.86;100.00;101429.97;3986974;29;20034;-76
2023/07/18 03:45:59;;;;;;;3.17;0.85;;;14.40;99.90;;;13.83;100.00;101424.16;3995001;29;20502;-76
2023/07/18 03:47:59;;;;;;;1.92;0.98;;;14.40;99.90;;;13.84;100.00;101412.56;3964395;30;20584;-76
2023/07/18 03:50:00;;;;;;;4.18;1.10;;;14.50;99.90;;;13.92;100.00;101401.19;3989459;29;20034;-76
2023/07/18 03:52:01;;;;;;;2.95;0.90;;;14.50;99.90;;;13.90;100.00;101374.81;3995816;29;20030;-76
2023/07/18 03:54:03;;;;;;;3.60;1.05;;;14.50;99.90;;;14.00;100.00;101382.63;3974081;29;20030;-76
2023/07/18 03:56:05;;;;;;;3.38;1.50;;;14.60;99.90;;;14.08;100.00;101394.06;3990738;29;20073;-76
2023/07/18 03:58:06;;;;;;;3.42;1.10;;;14.60;99.90;;;14.09;100.00;101400.22;3995706;29;20025;-76
2023/07/18 04:00:13;;;;;;;2.83;0.80;;;14.60;99.90;;;14.11;100.00;101406.19;3995550;29;20038;-76
2023/07/18 04:02:17;;;;;;;2.50;1.40;;;14.60;99.90;;;14.05;100.00;101402.38;3979383;29;20478;-76
2023/07/18 04:04:18;;;;;;;;;;;14.70;99.90;;;14.10;100.00;101400.03;3992055;29;20067;-75
2023/07/18 04:06:19;;;;;;;3.88;0.88;;;14.70;99.90;;;14.10;100.00;101405.34;3995680;29;19912;-76
2023/07/18 04:08:19;;;;;;;2.10;0.68;;;14.70;99.90;;;14.12;100.00;101415.81;3964104;30;20046;-76
2023/07/18 04:10:20;;;;;;;2.42;0.70;;;14.70;99.90;;;14.10;100.00;101410.66;3994338;29;20027;-76
2023/07/18 04:12:21;;;;;;;2.60;0.90;;;14.70;99.90;;;14.10;100.00;101410.66;3979322;29;20027;-76
2023/07/18 04:14:22;;;;;;;3.92;1.25;;;14.70;99.90;;;14.06;100.00;101414.66;3986483;29;20031;-76
2023/07/18 04:16:23;;;;;;;1.90;1.20;;;14.60;99.90;;;14.07;100.00;101426.06;3972370;29;20027;-76
2023/07/18 04:18:24;;;;;;;3.72;1.10;;;14.60;99.90;;;14.08;100.00;101438.34;3994535;29;20040;-76
2023/07/18 04:20:25;;;;;;;2.30;0.70;;;14.60;99.90;;;14.10;100.00;101444.31;3995436;29;20038;-76
2023/07/18 04:22:29;;;;;;;2.70;0.80;;;14.60;99.90;;;14.08;100.00;101433.88;3988469;29;20051;-76
2023/07/18 04:24:31;;;;;;;3.00;1.23;;;14.70;99.90;;;14.13;100.00;101436.03;3987466;29;20042;-76
2023/07/18 04:26:32;;;;;;;1.90;0.85;;;14.70;99.90;;;14.16;100.00;101446.31;3979116;29;20132;-76
2023/07/18 04:28:36;;;;;;;3.72;1.30;;;14.70;99.90;;;14.07;100.00;101432.19;3995345;29;20030;-76
2023/07/18 04:30:37;;;;;;;;;;;14.70;99.90;;;14.02;100.00;101445.13;3995605;29;20026;-76
2023/07/18 04:32:38;;;;;;;4.70;1.75;;;14.70;99.90;;;14.05;100.00;101466.03;3995293;29;19920;-76
2023/07/18 04:34:39;;;;;;;3.30;1.10;;;14.70;99.90;;;13.99;100.00;101465.84;3995308;29;20034;-76
2023/07/18 04:36:39;;;;;;;3.05;1.17;;;14.60;99.90;;;14.08;100.00;101481.63;3995460;29;20030;-76
2023/07/18 04:38:41;;;;;;;2.97;1.10;;;14.70;99.90;;;14.10;100.00;101484.94;3995310;29;20480;-76
2023/07/18 04:40:42;;;;;;;2.60;0.88;;;14.70;99.90;;;14.12;100.00;101484.78;3995205;29;20015;-76
2023/07/18 04:42:43;;;;;;;3.72;1.10;;;14.70;99.90;;;14.15;100.00;101485.31;3995580;29;20030;-76
2023/07/18 04:44:44;;;;;;;2.85;1.20;;;14.70;99.90;;;14.18;100.00;101478.84;3975071;29;20446;-76
2023/07/18 04:46:45;;;;;;;4.07;1.52;;;14.70;99.90;;;14.18;100.00;101458.44;3993895;29;20035;-76
2023/07/18 04:48:46;;;;;;;5.90;1.30;;;14.80;99.90;;;14.21;100.00;101428.94;3978954;29;20027;-76
2023/07/18 04:50:55;;;;;;;2.85;1.30;;;14.80;99.90;;;14.26;100.00;101399.25;3979128;29;20027;-76
2023/07/18 04:52:56;;;;;;;4.13;1.13;;;14.80;99.90;;;14.28;100.00;101402.56;3964890;29;20030;-76
2023/07/18 04:54:57;;;;;;;3.90;1.20;;;14.80;99.90;;;14.26;100.00;101417.81;3964087;30;20453;-76
2023/07/18 04:56:58;;;;;;;3.22;1.17;;;14.80;99.90;;;14.26;100.00;101399.25;3985530;29;20026;-76
2023/07/18 04:58:59;;;;;;;5.78;1.88;;;14.90;99.90;;;14.23;100.00;101352.66;3966791;30;20027;-76
2023/07/18 05:01:02;;;;;;;2.95;1.20;;;14.80;99.90;;;14.24;100.00;101353.47;3988652;29;20035;-76
2023/07/18 05:03:03;;;;;;;4.00;1.25;;;14.80;99.90;;;14.09;100.00;101385.13;3985749;29;20038;-76
2023/07/18 05:05:05;;;;;;;5.00;1.60;;;14.80;99.90;;;14.10;100.00;101431.88;3997775;29;20041;-76
2023/07/18 05:07:06;;;;;;;3.40;1.42;;;14.70;99.90;;;14.06;100.00;101441.19;3981824;29;20033;-76
2023/07/18 05:09:06;;;;;;;6.53;1.10;;;14.70;99.90;;;14.02;100.00;101429.22;3996592;29;20113;-76
2023/07/18 05:11:09;;;;;;;1.85;1.00;;;14.60;99.90;;;13.98;100.00;101406.63;3979977;29;20083;-76
2023/07/18 05:13:10;;;;;;;2.15;1.10;;;14.60;99.90;;;13.94;100.00;101400.03;3981557;29;20484;-76
2023/07/18 05:15:11;;;;;;;4.50;1.40;;;14.50;99.90;;;13.77;100.00;101377.06;3997685;29;20031;-76
2023/07/18 05:17:11;;;;;;;2.45;1.45;;;14.50;99.90;;;13.83;100.00;101376.44;3963335;30;20507;-76
2023/07/18 05:19:12;;;;;;;3.38;1.05;;;14.40;99.90;;;13.87;100.00;101372.47;3995948;29;20030;-76
2023/07/18 05:21:14;;;;;;;3.90;1.10;;;14.50;99.90;;;14.02;100.00;101370.84;3975017;29;20035;-76
2023/07/18 05:23:14;;;;;;;4.15;1.65;;;14.50;99.90;;;14.09;100.00;101345.34;3996964;29;20054;-76
2023/07/18 05:25:17;;;;;;;1.83;0.95;;;14.70;99.90;;;14.37;100.00;101361.78;3996088;29;20038;-76
2023/07/18 05:27:17;;;;;;;2.50;1.55;;;14.80;99.90;;;14.34;100.00;101347.03;3997667;29;20085;-76
2023/07/18 05:29:18;;;;;;;3.35;1.17;;;14.90;99.90;;;14.43;100.00;101349.69;3980915;29;20035;-76
2023/07/18 05:31:20;;;;;;;2.63;1.00;;;14.80;99.90;;;14.36;100.00;101350.38;3996206;29;20105;-76
2023/07/18 05:33:21;;;;;;;2.65;1.08;;;14.80;99.90;;;14.29;100.00;101332.56;3989172;29;20026;-76
2023/07/18 05:35:22;;;;;;;3.20;1.60;;;14.80;99.90;;;14.24;100.00;101326.94;3981580;29;20073;-76
2023/07/18 05:37:25;;;;;;;2.75;1.20;;;14.70;99.90;;;14.12;100.00;101315.84;3997522;29;20038;-76
2023/07/18 05:39:28;;;;;;;2.20;1.00;;;14.70;99.90;;;14.07;100.00;101320.78;3963384;29;20027;-76
2023/07/18 05:41:28;;;;;;;3.10;1.75;;;14.60;99.90;;;14.03;100.00;101308.03;3974156;29;20035;-76
2023/07/18 05:43:29;;;;;;;5.70;1.35;;;14.60;99.90;;;14.00;100.00;101301.22;3975353;29;20027;-76
2023/07/18 05:45:30;;;;;;;4.10;1.35;;;14.60;99.90;;;14.03;100.00;101322.13;3977522;29;20042;-76
2023/07/18 05:47:31;;;;;;;4.40;1.50;;;14.60;99.90;;;14.06;100.00;101329.75;3973481;29;20487;-76
2023/07/18 05:49:32;;;;;;;4.60;1.10;;;14.60;99.90;;;14.06;100.00;101319.13;3988261;29;20134;-76
2023/07/18 05:51:33;;;;;;;3.63;1.58;;;14.60;99.90;;;14.09;100.00;101325.94;3988291;29;20030;-76
2023/07/18 05:53:34;;;;;;;3.47;1.55;;;14.60;99.90;;;14.04;100.00;101326.41;3965910;29;20035;-76
2023/07/18 05:55:35;;;;;;;4.15;1.50;;;14.60;99.90;;;14.13;100.00;101336.03;3995683;29;20600;-76
2023/07/18 05:57:36;;;;;;;4.13;1.40;;;14.60;99.90;;;14.18;100.00;101333.75;3979210;29;20034;-76
2023/07/18 05:59:37;;;;;;;3.80;1.98;;;14.70;99.90;;;14.24;100.00;101346.34;3988225;29;20031;-76
2023/07/18 06:01:37;;;;;;;4.20;1.40;;;14.70;99.90;;;14.29;100.00;101351.16;3974950;29;20143;-76
2023/07/18 06:03:38;;;;;;;4.22;2.05;;;14.70;99.90;;;14.34;100.00;101344.38;3989309;29;20030;-76
2023/07/18 06:05:39;;;;;;;2.97;1.33;;;14.80;99.90;;;14.37;100.00;101341.41;3990936;29;20030;-76
2023/07/18 06:07:40;;;;;;;4.07;1.50;;;14.80;99.90;;;14.39;100.00;101331.44;3979271;29;20031;-76
2023/07/18 06:09:42;;;;;;;4.20;2.10;;;14.90;99.90;;;14.45;100.00;101334.44;3975731;29;20073;-76
2023/07/18 06:11:43;;;;;;;8.40;1.92;;;14.90;99.90;;;14.49;100.00;101344.53;3976628;29;20046;-76
2023/07/18 06:13:44;;;;;;;2.83;1.80;;;15.00;99.90;;;14.57;100.00;101349.03;3958331;30;20546;-76
2023/07/18 06:15:50;;;;;;;3.67;1.40;;;15.00;99.90;;;14.64;100.00;101366.78;3989532;29;20069;-75
2023/07/18 06:17:51;;;;;;;3.55;1.98;;;15.10;99.90;;;14.65;100.00;101365.78;3990433;29;20066;-75
2023/07/18 06:19:52;;;;;;;5.00;1.88;;;15.10;99.90;;;14.70;100.00;101370.56;3992624;29;20066;-76
2023/07/18 06:21:53;;;;;;;3.25;1.58;;;15.20;99.90;;;14.81;100.00;101367.59;3992634;29;20084;-76
2023/07/18 06:23:54;;;;;;;4.10;1.88;;;15.30;99.90;;;14.87;100.00;101378.34;3990719;29;20034;-76
2023/07/18 06:25:55;;;;;;;4.07;1.63;;;15.30;99.90;;;14.96;100.00;101377.34;3975776;29;20465;-76
2023/07/18 06:27:56;;;;;;;6.28;2.00;;;15.40;99.90;;;14.99;100.00;101376.22;3986731;29;20023;-74
2023/07/18 06:29:58;;;;;;;4.82;1.70;;;15.50;99.90;;;15.10;100.00;101367.88;3976406;29;20075;-76
2023/07/18 06:32:00;;;;;;;3.65;1.63;;;15.60;99.90;;;15.21;100.00;101372.81;3957721;30;20031;-76
2023/07/18 06:34:01;;;;;;;3.58;1.92;;;15.60;99.90;;;15.26;100.00;101381.09;3992701;29;20121;-76
2023/07/18 06:36:02;;;;;;;2.92;2.00;;;15.70;99.90;;;15.53;100.00;101379.88;3977590;29;20027;-76
2023/07/18 06:38:04;;;;;;;3.60;1.73;;;15.80;99.90;;;16.04;100.00;101373.94;3986756;29;20034;-76
2023/07/18 06:40:05;;;;;;;7.15;2.20;;;15.90;99.90;;;16.25;100.00;101375.13;3989902;29;20039;-76
2023/07/18 06:42:10;;;;;;;3.42;1.75;;;16.10;99.90;;;16.25;100.00;101365.31;3992497;29;20038;-76
2023/07/18 06:44:14;;;;;;;7.85;2.85;;;16.20;99.90;;;16.18;100.00;101367.06;3974946;29;20034;-76
2023/07/18 06:46:15;;;;;;;3.08;1.70;;;16.30;99.90;;;16.15;100.00;101379.88;3980351;29;20065;-76
2023/07/18 06:48:17;;;;;;;4.45;1.83;;;16.40;99.90;;;16.11;100.00;101378.56;3989684;29;20035;-76
2023/07/18 06:50:18;;;;;;;3.25;1.80;;;16.40;99.90;;;16.08;100.00;101385.09;3975066;29;20023;-76
2023/07/18 06:52:19;;;;;;;6.20;2.92;;;16.50;99.90;;;16.06;100.00;101384.44;3992828;29;20037;-76
2023/07/18 06:54:19;;;;;;;3.90;2.17;;;16.50;99.90;;;16.05;100.00;101380.94;3974739;29;20075;-76
2023/07/18 06:56:20;;;;;;;3.33;1.73;;;16.50;99.90;;;16.09;100.00;101384.09;3991263;29;20041;-76
2023/07/18 06:58:21;;;;;;;4.15;1.70;;;16.60;99.90;;;16.12;100.00;101388.22;3989763;29;20030;-76
2023/07/18 07:00:23;;;;;;;3.97;1.92;;;16.60;99.90;;;16.14;100.00;101389.69;3975768;29;20035;-76
2023/07/18 07:02:24;;;;;;;8.70;2.05;;;16.60;99.90;;;16.15;100.00;101379.88;3976277;29;20041;-76
2023/07/18 07:04:25;;;;;;;4.65;1.90;;;16.70;99.90;;;16.23;100.00;101388.63;3983212;29;20529;-76
2023/07/18 07:06:25;;;;;;;3.88;2.00;;;16.70;99.90;;;16.35;100.00;101392.56;3992451;29;20031;-76
2023/07/18 07:08:26;;;;;;;5.15;1.70;;;16.80;99.90;;;16.40;100.00;101384.84;3991361;29;20043;-76
2023/07/18 07:10:28;;;;;;;2.38;1.42;;;16.80;99.90;;;16.40;100.00;101371.53;3979775;29;20411;-76
2023/07/18 07:12:32;;;;;;;6.00;2.13;;;16.90;99.90;;;16.48;100.00;101375.97;3990330;29;20110;-76
2023/07/18 07:14:33;;;;;;;3.78;1.77;;;17.00;99.90;;;16.62;100.00;101371.72;3989485;29;20548;-76
2023/07/18 07:16:35;;;;;;;6.10;2.22;;;17.00;99.90;;;16.84;100.00;101357.53;3987161;29;20027;-76
2023/07/18 07:18:36;;;;;;;3.80;2.10;;;17.10;99.90;;;16.94;100.00;101366.09;3975499;29;20570;-76
2023/07/18 07:20:37;;;;;;;5.60;2.03;;;17.20;99.90;;;16.89;100.00;101363.16;3986744;29;20031;-76
2023/07/18 07:22:38;;;;;;;4.50;1.60;;;17.30;99.90;;;16.93;100.00;101377.78;3974627;29;20061;-76
2023/07/18 07:24:39;;;;;;;6.43;2.00;;;17.30;99.90;;;16.85;100.00;101372.50;3988584;29;20030;-76
2023/07/18 07:26:39;;;;;;;3.67;1.67;;;17.30;99.90;;;16.95;100.00;101378.41;3979796;29;20035;-76
2023/07/18 07:28:40;;;;;;;3.83;1.70;;;17.40;99.90;;;16.99;100.00;101374.38;3988681;29;20492;-76
2023/07/18 07:30:41;;;;;;;2.45;1.50;;;17.40;99.90;;;16.99;100.00;101356.53;3974888;29;20038;-76
2023/07/18 07:32:48;;;;;;;5.30;2.53;;;17.50;99.90;;;17.11;100.00;101365.72;3975197;29;20516;-76
2023/07/18 07:34:48;;;;;;;3.85;1.90;;;17.60;99.90;;;17.18;100.00;101355.16;3988181;29;20038;-76
2023/07/18 07:36:49;;;;;;;6.93;2.20;;;17.60;99.90;;;17.27;100.00;101355.88;3973807;29;20046;-76
2023/07/18 07:38:50;;;;;;;4.35;1.98;;;17.70;99.90;;;17.35;100.00;101356.63;3989808;29;20042;-76
2023/07/18 07:40:51;;;;;;;5.03;2.53;;;17.80;99.90;;;17.40;100.00;101351.56;3991771;29;20019;-76
2023/07/18 07:42:52;;;;;;;7.95;2.50;;;17.90;99.90;;;17.51;100.00;101336.94;3975170;29;20088;-76
2023/07/18 07:44:52;;;;;;;6.03;2.53;;;18.00;99.90;;;17.66;100.00;101351.09;3973016;29;20030;-76
2023/07/18 07:46:56;;;;;;;7.93;3.38;;;18.10;99.90;;;17.75;99.71;101349.16;3988487;29;20057;-76
2023/07/18 07:48:57;;;;;;;5.60;2.90;;;18.20;99.90;;;17.88;99.41;101343.97;3975234;29;20038;-76
2023/07/18 07:51:00;;;;;;;7.20;2.00;;;18.30;99.90;;;18.00;99.30;101345.13;3975614;29;20449;-76
2023/07/18 07:53:01;;;;;;;6.47;1.87;;;18.40;99.90;;;18.10;98.88;101337.59;3988988;29;20441;-76
2023/07/18 07:55:02;;;;;;;6.10;2.03;;;18.50;99.90;;;18.25;97.31;101338.38;3971113;29;20041;-76
2023/07/18 07:57:04;;;;;;;3.20;1.88;;;18.70;99.90;;;18.46;95.40;101332.19;3970371;29;20032;-76
2023/07/18 07:59:04;;;;;;;7.10;1.85;;;18.80;99.90;;;18.59;92.46;101333.16;3991427;29;20503;-76
2023/07/18 08:01:05;;;;;;;14.00;2.42;;;19.00;99.90;;;18.84;90.73;101338.06;3974356;29;20045;-76
2023/07/18 08:03:06;;;;;;;5.25;1.58;;;19.20;99.90;;;19.01;90.60;101323.38;3987030;29;20031;-76
2023/07/18 08:05:08;;;;;;;3.38;1.73;;;19.40;99.90;;;19.15;89.32;101306.38;3964125;30;20032;-76
2023/07/18 08:07:09;;;;;;;4.60;1.60;;;19.60;99.90;;;19.34;88.48;101319.84;3988711;29;20023;-76
2023/07/18 08:09:10;;;;;;;5.72;1.88;;;19.70;99.90;;;19.52;87.42;101313.16;3975719;29;20035;-76
2023/07/18 08:11:11;;;;;;;4.25;1.45;;;19.80;99.90;;;19.74;85.14;101307.44;3990745;29;20075;-76
2023/07/18 08:13:14;;;;;;;4.95;1.88;;;20.10;99.90;;;20.05;83.15;101314.94;3972999;29;20420;-76
2023/07/18 08:15:15;;;;;;;4.57;1.38;;;20.30;99.90;;;20.33;82.17;101293.38;3973849;29;20033;-76
2023/07/18 08:17:16;;;;;;;3.22;1.40;;;20.60;99.90;;;20.75;79.38;101309.00;3988908;29;20038;-76
2023/07/18 08:19:17;;;;;;;4.60;1.63;;;20.90;99.90;;;21.14;78.38;101305.44;3973684;29;20035;-76
2023/07/18 08:21:18;;;;;;;2.88;1.42;;;21.20;99.90;;;21.42;76.71;101300.56;3988901;29;20165;-76